createdAt,value
2023-03-24T00:02:14.165Z,12.23
2023-03-24T00:04:42.861Z,8.05
2023-03-24T00:07:15.148Z,11.38
2023-03-24T00:09:44.161Z,11.80
2023-03-24T00:12:14.138Z,15.07
2023-03-24T00:14:42.542Z,14.23
2023-03-24T00:17:12.934Z,37.00
2023-03-24T00:19:41.761Z,18.30
2023-03-24T00:22:14.493Z,14.27
2023-03-24T00:24:46.516Z,20.63
2023-03-24T00:27:15.653Z,37.85
2023-03-24T00:29:44.385Z,30.45
2023-03-24T00:32:13.031Z,19.27
2023-03-24T00:34:43.414Z,13.38
2023-03-24T00:37:12.065Z,18.15
2023-03-24T00:39:42.679Z,17.05
2023-03-24T00:42:11.382Z,13.23
2023-03-24T00:44:39.780Z,13.23
2023-03-24T00:47:08.447Z,12.77
2023-03-24T00:49:42.825Z,9.25
2023-03-24T00:52:14.711Z,9.85
2023-03-24T00:54:43.593Z,35.72
2023-03-24T00:57:13.148Z,12.55
2023-03-24T00:59:48.727Z,28.42
2023-03-24T01:02:22.531Z,16.35
2023-03-24T01:04:56.532Z,17.80
2023-03-24T01:07:26.141Z,42.08
2023-03-24T01:09:58.199Z,14.98
2023-03-24T01:12:34.409Z,11.27
2023-03-24T01:15:05.606Z,9.38
2023-03-24T01:17:34.914Z,9.82
2023-03-24T01:20:11.775Z,8.45
2023-03-24T01:22:44.867Z,13.40
2023-03-24T01:25:16.709Z,14.57
2023-03-24T01:27:46.032Z,14.32
2023-03-24T01:30:16.691Z,16.30
2023-03-24T01:32:45.557Z,28.27
2023-03-24T01:35:14.113Z,26.33
2023-03-24T01:37:42.860Z,13.63
2023-03-24T01:40:15.514Z,20.48
2023-03-24T01:42:44.214Z,17.75
2023-03-24T01:45:31.588Z,15.25
2023-03-24T01:48:00.745Z,18.50
2023-03-24T01:50:29.996Z,34.45
2023-03-24T01:52:59.877Z,33.97
2023-03-24T01:55:29.925Z,24.00
2023-03-24T01:58:01.997Z,20.35
2023-03-24T02:00:42.245Z,45.10
2023-03-24T02:03:34.209Z,21.10
2023-03-24T02:06:03.656Z,15.20
2023-03-24T02:08:44.779Z,12.23
2023-03-24T02:11:13.319Z,12.75
2023-03-24T02:13:50.981Z,12.93
2023-03-24T02:16:38.371Z,12.70
2023-03-24T02:19:38.537Z,11.45
2023-03-24T02:22:21.536Z,12.02
2023-03-24T02:25:02.166Z,14.52
2023-03-24T02:28:09.574Z,11.90
2023-03-24T02:30:47.245Z,15.35
2023-03-24T02:33:36.452Z,13.48
2023-03-24T02:36:37.179Z,14.43
2023-03-24T02:39:23.567Z,11.82
2023-03-24T02:41:52.403Z,12.43
2023-03-24T02:44:42.228Z,10.40
2023-03-24T02:47:24.366Z,10.75
2023-03-24T02:50:05.126Z,13.48
2023-03-24T02:52:34.127Z,11.57
2023-03-24T02:55:19.862Z,13.18
2023-03-24T02:57:48.573Z,15.52
2023-03-24T03:01:10.578Z,12.20
2023-03-24T03:04:33.750Z,11.70
2023-03-24T03:07:10.185Z,12.65
2023-03-24T03:09:47.651Z,15.48
2023-03-24T03:12:19.559Z,11.32
2023-03-24T03:14:54.549Z,12.38
2023-03-24T03:17:31.175Z,10.75
2023-03-24T03:20:14.885Z,14.55
2023-03-24T03:22:53.851Z,12.23
2023-03-24T03:25:26.762Z,12.63
2023-03-24T03:28:00.146Z,14.60
2023-03-24T03:30:40.520Z,13.98
2023-03-24T03:33:25.302Z,14.15
2023-03-24T03:36:28.065Z,12.23
2023-03-24T03:39:21.628Z,12.70
2023-03-24T03:41:50.639Z,11.68
2023-03-24T03:44:19.069Z,13.43
2023-03-24T03:46:47.785Z,12.90
2023-03-24T03:49:23.482Z,13.13
2023-03-24T03:51:52.719Z,12.52
2023-03-24T03:54:21.410Z,13.70
2023-03-24T03:56:50.743Z,13.07
2023-03-24T03:59:34.626Z,13.63
2023-03-24T04:02:22.229Z,15.20
2023-03-24T04:05:14.433Z,14.55
2023-03-24T04:08:13.831Z,19.98
2023-03-24T04:11:47.036Z,16.90
2023-03-24T04:15:12.589Z,17.48
2023-03-24T04:17:59.079Z,23.45
2023-03-24T04:21:42.528Z,21.05
2023-03-24T04:24:35.235Z,23.45
2023-03-24T04:27:17.608Z,24.48
2023-03-24T04:29:46.744Z,26.83
2023-03-24T04:32:32.573Z,21.90
2023-03-24T04:38:17.325Z,22.40
2023-03-24T04:40:52.466Z,21.55
2023-03-24T04:43:25.037Z,19.65
2023-03-24T04:45:58.064Z,21.38
2023-03-24T04:48:40.720Z,20.75
2023-03-24T04:51:18.012Z,23.30
2023-03-24T04:54:13.167Z,21.73
2023-03-24T04:56:48.059Z,20.42
2023-03-24T04:59:24.057Z,17.67
2023-03-24T05:01:52.422Z,18.40
2023-03-24T05:04:25.660Z,19.20
2023-03-24T05:06:55.195Z,20.25
2023-03-24T05:09:27.236Z,17.40
2023-03-24T05:11:55.616Z,17.17
2023-03-24T05:14:30.413Z,14.63
2023-03-24T05:16:59.584Z,15.35
2023-03-24T05:19:28.168Z,15.50
2023-03-24T05:21:57.305Z,16.67
2023-03-24T05:24:26.095Z,16.13
2023-03-24T05:26:54.489Z,17.55
2023-03-24T05:29:23.365Z,19.27
2023-03-24T05:31:51.708Z,17.98
2023-03-24T05:34:23.132Z,14.90
2023-03-24T05:37:12.230Z,13.88
2023-03-24T05:39:41.226Z,16.02
2023-03-24T05:42:18.665Z,23.67
2023-03-24T05:44:47.808Z,25.92
2023-03-24T05:47:24.152Z,28.13
2023-03-24T05:49:53.379Z,28.48
2023-03-24T05:52:22.593Z,27.25
2023-03-24T05:55:00.043Z,38.63
2023-03-24T05:57:30.686Z,51.92
2023-03-24T06:00:23.635Z,38.78
2023-03-24T06:03:02.930Z,31.42
2023-03-24T06:05:52.809Z,34.42
2023-03-24T06:08:20.897Z,33.13
2023-03-24T06:10:49.779Z,36.85
2023-03-24T06:13:18.058Z,63.08
2023-03-24T06:15:48.710Z,46.25
2023-03-24T06:18:35.313Z,77.03
2023-03-24T06:21:13.415Z,29.35
2023-03-24T06:23:43.512Z,24.50
2023-03-24T06:26:15.160Z,31.63
2023-03-24T06:28:54.642Z,21.02
2023-03-24T06:31:27.848Z,22.60
2023-03-24T06:33:56.237Z,19.00
2023-03-24T06:36:25.846Z,34.25
2023-03-24T06:38:54.636Z,26.52
2023-03-24T06:41:23.989Z,21.80
2023-03-24T06:44:02.063Z,25.50
2023-03-24T06:46:30.977Z,30.38
2023-03-24T06:49:00.010Z,15.65
2023-03-24T06:51:28.407Z,20.35
2023-03-24T06:53:56.586Z,25.52
2023-03-24T06:56:25.344Z,21.40
2023-03-24T06:58:57.954Z,15.27
2023-03-24T07:01:36.459Z,21.63
2023-03-24T07:04:18.953Z,29.48
2023-03-24T07:07:17.538Z,24.35
2023-03-24T07:09:45.494Z,15.25
2023-03-24T07:12:14.898Z,21.23
2023-03-24T07:14:44.234Z,20.05
2023-03-24T07:17:13.866Z,18.08
2023-03-24T07:19:51.509Z,16.25
2023-03-24T07:22:38.764Z,12.63
2023-03-24T07:25:25.759Z,16.83
2023-03-24T07:28:12.762Z,14.30
2023-03-24T07:30:41.340Z,12.93
2023-03-24T07:33:12.849Z,16.42
2023-03-24T07:35:44.596Z,9.68
2023-03-24T07:38:13.527Z,9.35
2023-03-24T07:40:41.658Z,8.57
2023-03-24T07:43:10.044Z,10.60
2023-03-24T07:45:54.905Z,19.80
2023-03-24T07:48:23.399Z,13.00
2023-03-24T07:50:53.418Z,10.70
2023-03-24T07:53:45.756Z,8.77
2023-03-24T07:56:21.580Z,9.07
2023-03-24T07:58:57.229Z,16.15
2023-03-24T08:01:33.263Z,25.02
2023-03-24T08:04:06.944Z,11.52
2023-03-24T08:06:54.308Z,19.23
2023-03-24T08:09:24.298Z,14.85
2023-03-24T08:11:52.369Z,8.30
2023-03-24T08:14:21.312Z,10.10
2023-03-24T08:16:50.119Z,7.07
2023-03-24T08:19:18.793Z,20.38
2023-03-24T08:21:47.174Z,16.65
2023-03-24T08:24:15.779Z,15.13
2023-03-24T08:26:46.900Z,11.10
2023-03-24T08:29:15.165Z,10.90
2023-03-24T08:31:43.215Z,8.02
2023-03-24T08:34:11.938Z,8.30
2023-03-24T08:36:41.604Z,16.77
2023-03-24T08:39:10.123Z,9.07
2023-03-24T08:41:38.100Z,8.50
2023-03-24T08:44:07.645Z,7.72
2023-03-24T08:46:35.921Z,6.55
2023-03-24T08:49:06.468Z,7.60
2023-03-24T08:51:34.872Z,8.60
2023-03-24T08:54:03.969Z,6.93
2023-03-24T08:56:32.049Z,9.60
2023-03-24T08:59:00.381Z,9.75
2023-03-24T09:01:28.583Z,10.65
2023-03-24T09:03:57.551Z,11.07
2023-03-24T09:06:27.399Z,8.75
2023-03-24T09:08:55.715Z,8.43
2023-03-24T09:11:23.914Z,8.13
2023-03-24T09:13:52.590Z,12.57
2023-03-24T09:16:20.655Z,9.73
2023-03-24T09:18:49.033Z,11.35
2023-03-24T09:21:17.284Z,12.65
2023-03-24T09:23:46.049Z,22.90
2023-03-24T09:26:14.175Z,11.85
2023-03-24T09:28:42.466Z,9.32
2023-03-24T09:31:12.080Z,12.90
2023-03-24T09:33:40.789Z,9.23
2023-03-24T09:36:10.120Z,10.45
2023-03-24T09:38:38.513Z,9.45
2023-03-24T09:41:18.780Z,10.45
2023-03-24T09:43:57.127Z,10.35
2023-03-24T09:46:30.692Z,9.52
2023-03-24T09:48:59.395Z,10.90
2023-03-24T09:51:38.380Z,10.73
2023-03-24T09:54:43.251Z,11.55
2023-03-24T09:57:23.879Z,9.38
2023-03-24T09:59:52.419Z,9.32
2023-03-24T10:02:22.493Z,10.63
2023-03-24T10:04:51.157Z,9.15
2023-03-24T10:07:51.683Z,13.77
2023-03-24T10:11:01.402Z,6.50
2023-03-24T10:13:51.497Z,8.07
2023-03-24T10:16:20.565Z,7.88
2023-03-24T10:19:12.761Z,8.80
2023-03-24T10:21:45.154Z,7.93
2023-03-24T10:24:24.488Z,6.63
2023-03-24T10:27:00.698Z,7.93
2023-03-24T10:29:34.774Z,7.07
2023-03-24T10:32:22.584Z,6.90
2023-03-24T10:35:07.650Z,8.20
2023-03-24T10:37:37.302Z,5.18
2023-03-24T10:40:18.304Z,5.30
2023-03-24T10:42:49.904Z,5.68
2023-03-24T10:45:38.326Z,6.22
2023-03-24T10:48:07.561Z,5.68
2023-03-24T10:50:36.187Z,5.72
2023-03-24T10:53:22.061Z,5.60
2023-03-24T10:55:50.784Z,6.10
2023-03-24T10:58:38.264Z,6.70
2023-03-24T11:01:24.829Z,4.90
2023-03-24T11:03:59.938Z,5.15
2023-03-24T11:06:27.965Z,6.57
2023-03-24T11:09:19.815Z,9.05
2023-03-24T11:11:48.517Z,8.10
2023-03-24T11:14:25.662Z,5.90
2023-03-24T11:17:12.727Z,6.28
2023-03-24T11:19:51.400Z,6.97
2023-03-24T11:22:20.211Z,5.60
2023-03-24T11:24:55.272Z,8.50
2023-03-24T11:27:23.375Z,14.95
2023-03-24T11:29:55.627Z,7.20
2023-03-24T11:32:29.912Z,4.43
2023-03-24T11:35:07.811Z,6.20
2023-03-24T11:37:37.718Z,18.83
2023-03-24T11:40:25.888Z,10.60
2023-03-24T11:42:58.250Z,13.30
2023-03-24T11:45:40.847Z,8.77
2023-03-24T11:48:30.389Z,7.22
2023-03-24T11:51:00.237Z,5.50
2023-03-24T11:53:42.706Z,9.18
2023-03-24T11:56:26.290Z,5.90
2023-03-24T11:59:01.878Z,6.63
2023-03-24T12:01:42.718Z,7.63
2023-03-24T12:04:47.585Z,6.32
2023-03-24T12:07:54.378Z,8.00
2023-03-24T12:10:33.226Z,5.25
2023-03-24T12:13:22.187Z,5.65
2023-03-24T12:16:46.269Z,5.38
2023-03-24T12:19:39.137Z,10.52
2023-03-24T12:22:08.129Z,4.85
2023-03-24T12:25:14.110Z,8.48
2023-03-24T12:28:02.500Z,4.78
2023-03-24T12:31:09.474Z,4.70
2023-03-24T12:34:34.882Z,5.30
2023-03-24T12:37:22.474Z,4.65
2023-03-24T12:40:10.487Z,8.15
2023-03-24T12:42:42.373Z,5.22
2023-03-24T12:45:41.303Z,4.22
2023-03-24T12:48:29.296Z,5.00
2023-03-24T12:51:39.420Z,4.60
2023-03-24T12:54:10.482Z,4.85
2023-03-24T12:56:44.980Z,5.53
2023-03-24T12:59:22.111Z,10.10
2023-03-24T13:02:00.850Z,17.10
2023-03-24T13:04:38.036Z,11.75
2023-03-24T13:07:12.301Z,6.20
2023-03-24T13:09:57.206Z,5.85
2023-03-24T13:12:31.685Z,5.25
2023-03-24T13:15:24.728Z,6.28
2023-03-24T13:18:11.779Z,5.85
2023-03-24T13:20:47.127Z,7.10
2023-03-24T13:23:22.008Z,7.97
2023-03-24T13:26:09.111Z,5.47
2023-03-24T13:29:00.831Z,4.32
2023-03-24T13:31:35.527Z,4.13
2023-03-24T13:34:05.584Z,5.78
2023-03-24T13:36:50.183Z,7.18
2023-03-24T13:39:23.285Z,6.43
2023-03-24T13:41:54.703Z,4.82
2023-03-24T13:44:24.947Z,5.63
2023-03-24T13:47:23.728Z,4.68
2023-03-24T13:50:05.367Z,7.72
2023-03-24T13:52:36.763Z,11.50
2023-03-24T13:55:14.308Z,8.25
2023-03-24T13:58:16.043Z,9.20
2023-03-24T14:01:06.854Z,5.65
2023-03-24T14:04:14.176Z,8.05
2023-03-24T14:09:35.455Z,11.00
2023-03-24T14:12:05.021Z,10.95
2023-03-24T14:15:11.916Z,9.32
2023-03-24T14:17:45.041Z,10.93
2023-03-24T14:20:26.410Z,11.27
2023-03-24T14:22:55.102Z,6.82
2023-03-24T14:25:29.390Z,8.57
2023-03-24T14:28:22.703Z,7.53
2023-03-24T14:31:03.717Z,12.13
2023-03-24T14:33:32.362Z,12.02
2023-03-24T14:36:07.152Z,12.98
2023-03-24T14:38:42.214Z,7.00
2023-03-24T14:41:20.581Z,9.13
2023-03-24T14:43:49.075Z,14.05
2023-03-24T14:46:20.094Z,6.95
2023-03-24T14:49:23.637Z,10.65
2023-03-24T14:52:01.004Z,6.50
2023-03-24T14:54:50.476Z,7.85
2023-03-24T14:57:39.777Z,7.45
2023-03-24T15:00:51.757Z,14.27
2023-03-24T15:03:51.581Z,10.80
2023-03-24T15:06:25.221Z,13.65
2023-03-24T15:08:58.713Z,12.20
2023-03-24T15:11:35.823Z,16.70
2023-03-24T15:14:13.958Z,18.73
2023-03-24T15:16:43.146Z,21.00
2023-03-24T15:19:21.700Z,20.00
2023-03-24T15:21:57.826Z,15.35
2023-03-24T15:24:34.916Z,23.20
2023-03-24T15:27:06.992Z,28.20
2023-03-24T15:29:37.314Z,23.08
2023-03-24T15:32:06.963Z,20.33
2023-03-24T15:34:41.014Z,19.52
2023-03-24T15:37:21.928Z,15.43
2023-03-24T15:40:01.896Z,15.30
2023-03-24T15:42:44.013Z,12.13
2023-03-24T15:45:22.765Z,11.95
2023-03-24T15:47:53.632Z,15.88
2023-03-24T15:50:35.073Z,12.48
2023-03-24T15:53:14.299Z,28.67
2023-03-24T15:55:43.962Z,18.67
2023-03-24T15:58:32.425Z,23.02
2023-03-24T16:01:02.952Z,25.73
2023-03-24T16:03:34.126Z,27.20
2023-03-24T16:06:02.969Z,26.92
2023-03-24T16:08:38.980Z,24.10
2023-03-24T16:11:12.969Z,23.63
2023-03-24T16:13:44.556Z,31.48
2023-03-24T16:16:16.018Z,27.92
2023-03-24T16:18:47.409Z,25.77
2023-03-24T16:21:20.505Z,25.80
2023-03-24T16:23:50.473Z,25.35
2023-03-24T16:26:26.410Z,53.00
2023-03-24T16:29:00.351Z,37.63
2023-03-24T16:31:31.089Z,24.45
2023-03-24T16:33:59.660Z,35.30
2023-03-24T16:36:28.076Z,32.15
2023-03-24T16:38:58.354Z,68.30
2023-03-24T16:41:26.573Z,19.20
2023-03-24T16:43:55.463Z,36.88
2023-03-24T16:46:23.781Z,61.78
2023-03-24T16:48:54.855Z,35.08
2023-03-24T16:51:25.673Z,62.70
2023-03-24T16:53:54.201Z,59.75
2023-03-24T16:56:23.671Z,84.97
2023-03-24T16:58:56.570Z,134.95
2023-03-24T17:01:35.914Z,210.13
2023-03-24T17:04:10.390Z,176.88
2023-03-24T17:06:42.766Z,188.25
2023-03-24T17:09:12.711Z,128.02
2023-03-24T17:11:48.386Z,48.15
2023-03-24T17:14:17.556Z,17.38
2023-03-24T17:16:49.341Z,12.52
2023-03-24T17:19:20.259Z,12.68
2023-03-24T17:21:58.023Z,18.92
2023-03-24T17:24:28.750Z,16.48
2023-03-24T17:26:56.895Z,27.95
2023-03-24T17:29:25.769Z,40.63
2023-03-24T17:31:54.540Z,64.32
2023-03-24T17:34:22.840Z,120.60
2023-03-24T17:36:51.771Z,104.00
2023-03-24T17:39:21.924Z,95.95
2023-03-24T17:41:50.438Z,99.45
2023-03-24T17:44:19.149Z,91.50
2023-03-24T17:46:47.124Z,108.47
2023-03-24T17:49:16.109Z,63.38
2023-03-24T17:51:44.417Z,63.08
2023-03-24T17:54:13.957Z,94.63
2023-03-24T17:56:42.312Z,58.13
2023-03-24T17:59:11.111Z,57.30
2023-03-24T18:01:40.474Z,161.82
2023-03-24T18:04:09.318Z,131.73
2023-03-24T18:06:38.663Z,92.88
2023-03-24T18:09:07.578Z,66.53
2023-03-24T18:11:36.287Z,60.45
2023-03-24T18:14:04.439Z,42.15
2023-03-24T18:16:35.177Z,46.00
2023-03-24T18:19:04.156Z,33.55
2023-03-24T18:21:32.569Z,29.63
2023-03-24T18:24:01.217Z,20.33
2023-03-24T18:26:29.891Z,19.65
2023-03-24T18:28:59.146Z,23.27
2023-03-24T18:31:32.104Z,25.92
2023-03-24T18:34:00.725Z,30.58
2023-03-24T18:36:29.188Z,31.65
2023-03-24T18:38:59.696Z,40.97
2023-03-24T18:41:30.046Z,41.85
2023-03-24T18:43:59.621Z,83.40
2023-03-24T18:46:28.592Z,106.03
2023-03-24T18:48:57.159Z,42.47
2023-03-24T18:51:26.454Z,26.15
2023-03-24T18:53:55.221Z,35.53
2023-03-24T18:56:24.257Z,12.43
2023-03-24T18:58:53.155Z,9.70
2023-03-24T19:01:24.931Z,23.20
2023-03-24T19:03:53.733Z,15.10
2023-03-24T19:06:26.290Z,12.32
2023-03-24T19:08:55.058Z,18.08
2023-03-24T19:11:23.585Z,28.92
2023-03-24T19:13:52.573Z,47.80
2023-03-24T19:16:21.263Z,37.28
2023-03-24T19:18:50.960Z,20.15
2023-03-24T19:21:23.031Z,17.38
2023-03-24T19:23:54.271Z,20.90
2023-03-24T19:26:22.681Z,39.22
2023-03-24T19:28:51.382Z,22.63
2023-03-24T19:31:20.820Z,18.15
2023-03-24T19:33:51.664Z,9.80
2023-03-24T19:36:20.296Z,7.68
2023-03-24T19:38:48.929Z,6.47
2023-03-24T19:41:19.164Z,10.57
2023-03-24T19:43:47.781Z,98.95
2023-03-24T19:46:20.933Z,23.52
2023-03-24T19:48:49.352Z,9.43
2023-03-24T19:51:18.722Z,9.95
2023-03-24T19:53:47.376Z,14.40
2023-03-24T19:56:17.495Z,27.75
2023-03-24T19:58:46.315Z,29.73
2023-03-24T20:01:14.296Z,88.53
2023-03-24T20:03:43.023Z,188.30
2023-03-24T20:06:11.806Z,76.00
2023-03-24T20:08:40.440Z,61.67
2023-03-24T20:11:12.284Z,41.53
2023-03-24T20:13:40.897Z,19.67
2023-03-24T20:16:09.073Z,25.65
2023-03-24T20:18:39.171Z,69.40
2023-03-24T20:21:08.527Z,34.97
2023-03-24T20:23:37.104Z,71.70
2023-03-24T20:26:05.533Z,49.92
2023-03-24T20:28:34.009Z,42.30
2023-03-24T20:31:02.831Z,36.38
2023-03-24T20:33:32.236Z,35.50
2023-03-24T20:36:01.170Z,38.38
2023-03-24T20:38:30.063Z,35.10
2023-03-24T20:41:06.070Z,35.25
2023-03-24T20:43:36.303Z,31.92
2023-03-24T20:46:06.545Z,27.85
2023-03-24T20:48:35.709Z,14.00
2023-03-24T20:51:04.283Z,29.98
2023-03-24T20:53:33.177Z,63.50
2023-03-24T20:56:06.871Z,23.08
2023-03-24T20:58:37.884Z,21.77
2023-03-24T21:01:08.179Z,15.23
2023-03-24T21:03:37.107Z,43.45
2023-03-24T21:06:06.178Z,13.20
2023-03-24T21:08:34.765Z,21.70
2023-03-24T21:11:02.986Z,42.25
2023-03-24T21:13:37.333Z,17.23
2023-03-24T21:16:08.762Z,28.38
2023-03-24T21:18:38.175Z,34.75
2023-03-24T21:21:06.975Z,29.45
2023-03-24T21:23:39.241Z,35.97
2023-03-24T21:26:12.458Z,43.72
2023-03-24T21:28:41.327Z,20.77
2023-03-24T21:31:11.742Z,22.70
2023-03-24T21:33:40.978Z,23.23
2023-03-24T21:36:10.167Z,26.05
2023-03-24T21:38:39.204Z,24.75
2023-03-24T21:41:07.900Z,14.13
2023-03-24T21:43:37.345Z,22.42
2023-03-24T21:46:06.804Z,12.45
2023-03-24T21:48:40.274Z,14.05
2023-03-24T21:51:08.160Z,19.15
2023-03-24T21:53:36.743Z,25.42
2023-03-24T21:56:05.662Z,24.10
2023-03-24T21:58:34.865Z,34.78
2023-03-24T22:01:03.334Z,41.78
2023-03-24T22:03:34.577Z,32.75
2023-03-24T22:06:03.138Z,27.00
2023-03-24T22:08:31.877Z,21.08
2023-03-24T22:11:01.583Z,17.90
2023-03-24T22:13:31.353Z,15.27
2023-03-24T22:16:01.681Z,20.20
2023-03-24T22:18:32.725Z,28.00
2023-03-24T22:21:06.922Z,30.65
2023-03-24T22:23:40.565Z,24.40
2023-03-24T22:26:16.876Z,32.13
2023-03-24T22:28:45.354Z,20.13
2023-03-24T22:31:16.290Z,19.92
2023-03-24T22:33:45.259Z,27.00
2023-03-24T22:36:13.463Z,30.92
2023-03-24T22:38:42.505Z,30.77
2023-03-24T22:41:12.679Z,36.33
2023-03-24T22:43:42.071Z,27.65
2023-03-24T22:46:11.292Z,20.75
2023-03-24T22:48:40.105Z,21.48
2023-03-24T22:51:09.261Z,19.38
2023-03-24T22:53:37.759Z,14.75
2023-03-24T22:56:06.412Z,13.73
2023-03-24T22:58:35.815Z,13.15
2023-03-24T23:01:06.171Z,22.17
2023-03-24T23:03:34.973Z,20.08
2023-03-24T23:06:03.494Z,25.65
2023-03-24T23:08:33.519Z,16.92
2023-03-24T23:11:02.344Z,14.13
2023-03-24T23:13:30.973Z,16.00
2023-03-24T23:15:59.387Z,16.38
2023-03-24T23:18:28.054Z,14.30
2023-03-24T23:21:07.264Z,17.45
2023-03-24T23:23:36.448Z,13.93
2023-03-24T23:26:05.804Z,13.27
2023-03-24T23:28:34.672Z,16.25
2023-03-24T23:31:03.097Z,30.05
2023-03-24T23:33:31.758Z,44.63
2023-03-24T23:35:59.872Z,31.77
2023-03-24T23:38:28.574Z,47.05
2023-03-24T23:40:56.580Z,51.30
2023-03-24T23:43:24.991Z,51.38
2023-03-24T23:45:57.221Z,30.02
2023-03-24T23:48:26.138Z,36.63
2023-03-24T23:50:58.752Z,25.55
2023-03-24T23:53:27.554Z,33.30
2023-03-24T23:55:57.160Z,26.55
2023-03-24T23:58:25.676Z,22.48
